createdAt,value
2019-03-05T00:00:05.767Z,94637.37
2019-03-05T00:02:33.239Z,94641.15
2019-03-05T00:05:00.944Z,94645.23
2019-03-05T00:07:28.405Z,94650.75
2019-03-05T00:09:56.250Z,94652.98
2019-03-05T00:12:23.698Z,94653.08
2019-03-05T00:14:51.602Z,94660.75
2019-03-05T00:17:19.178Z,94655.77
2019-03-05T00:19:46.658Z,94674.25
2019-03-05T00:22:14.101Z,94670.28
2019-03-05T00:25:07.061Z,94667.33
2019-03-05T00:28:02.683Z,94667.89
2019-03-05T00:30:52.722Z,94670.85
2019-03-05T00:33:32.829Z,94682.61
2019-03-05T00:36:36.355Z,94681.94
2019-03-05T00:39:37.678Z,94682.50
2019-03-05T00:42:42.507Z,94677.78
2019-03-05T00:46:05.283Z,94679.08
2019-03-05T00:49:06.290Z,94679.54
2019-03-05T00:52:10.398Z,94692.74
2019-03-05T00:55:15.621Z,94694.95
2019-03-05T00:58:08.575Z,94698.09
2019-03-05T01:01:02.628Z,94697.95
2019-03-05T01:04:16.495Z,94702.73
2019-03-05T01:06:43.931Z,94707.05
2019-03-05T01:09:14.432Z,94714.75
2019-03-05T01:11:42.271Z,94714.17
2019-03-05T01:14:10.652Z,94716.08
2019-03-05T01:16:38.338Z,94716.48
2019-03-05T01:19:05.937Z,94711.80
2019-03-05T01:21:33.390Z,94715.05
2019-03-05T01:24:00.950Z,94725.97
2019-03-05T01:26:28.476Z,94732.22
2019-03-05T01:28:55.919Z,94734.53
2019-03-05T01:31:51.628Z,94736.10
2019-03-05T01:34:36.399Z,94730.09
2019-03-05T01:37:06.134Z,94722.02
2019-03-05T01:39:39.048Z,94729.16
2019-03-05T01:42:07.861Z,94732.98
2019-03-05T01:44:35.370Z,94743.73
2019-03-05T01:47:02.961Z,94744.97
2019-03-05T01:49:30.498Z,94747.38
2019-03-05T01:51:57.958Z,94745.38
2019-03-05T01:54:25.458Z,94741.06
2019-03-05T01:56:52.901Z,94736.50
2019-03-05T01:59:20.345Z,94726.24
2019-03-05T02:01:47.860Z,94731.79
2019-03-05T02:04:15.302Z,94732.41
2019-03-05T02:06:42.898Z,94731.07
2019-03-05T02:09:10.628Z,94742.11
2019-03-05T02:11:38.183Z,94742.20
2019-03-05T02:14:05.718Z,94741.68
2019-03-05T02:16:33.338Z,94738.50
2019-03-05T02:19:47.646Z,94735.95
2019-03-05T02:22:40.078Z,94725.94
2019-03-05T02:25:29.470Z,94731.08
2019-03-05T02:28:23.457Z,94725.47
2019-03-05T02:31:15.579Z,94732.47
2019-03-05T02:34:05.427Z,94732.63
2019-03-05T02:36:59.211Z,94734.37
2019-03-05T02:39:50.898Z,94743.17
2019-03-05T02:43:00.385Z,94739.91
2019-03-05T02:45:48.848Z,94729.97
2019-03-05T02:48:34.228Z,94728.09
2019-03-05T02:51:43.109Z,94729.35
2019-03-05T02:54:44.583Z,94733.87
2019-03-05T02:57:11.185Z,94732.28
2019-03-05T02:59:41.184Z,94740.26
2019-03-05T03:02:28.129Z,94736.48
2019-03-05T03:05:30.426Z,94740.49
2019-03-05T03:07:58.039Z,94749.45
2019-03-05T03:10:25.607Z,94741.63
2019-03-05T03:12:54.079Z,94738.41
2019-03-05T03:15:21.600Z,94736.74
2019-03-05T03:17:49.564Z,94730.11
2019-03-05T03:20:18.375Z,94724.88
2019-03-05T03:22:45.920Z,94732.77
2019-03-05T03:25:15.619Z,94740.36
2019-03-05T03:27:43.247Z,94742.02
2019-03-05T03:30:12.918Z,94741.69
2019-03-05T03:32:40.350Z,94751.00
2019-03-05T03:35:08.942Z,94752.38
2019-03-05T03:37:36.640Z,94749.77
2019-03-05T03:40:06.221Z,94754.02
2019-03-05T03:42:33.859Z,94755.99
2019-03-05T03:45:01.405Z,94738.66
2019-03-05T03:47:28.878Z,94733.80
2019-03-05T03:49:56.339Z,94742.98
2019-03-05T03:52:23.839Z,94738.73
2019-03-05T03:54:51.278Z,94736.78
2019-03-05T03:57:19.259Z,94740.66
2019-03-05T03:59:47.738Z,94736.91
2019-03-05T04:02:15.172Z,94745.73
2019-03-05T04:04:42.641Z,94745.95
2019-03-05T04:07:10.238Z,94764.41
2019-03-05T04:09:37.708Z,94769.66
2019-03-05T04:12:05.162Z,94770.09
2019-03-05T04:14:32.600Z,94775.97
2019-03-05T04:17:00.065Z,94784.07
2019-03-05T04:19:30.556Z,94776.59
2019-03-05T04:21:59.340Z,94780.29
2019-03-05T04:24:26.775Z,94788.58
2019-03-05T04:26:54.220Z,94783.66
2019-03-05T04:29:21.745Z,94795.53
2019-03-05T04:31:49.578Z,94797.52
2019-03-05T04:34:17.049Z,94795.48
2019-03-05T04:36:44.484Z,94799.84
2019-03-05T04:39:11.929Z,94799.41
2019-03-05T04:41:39.658Z,94800.67
2019-03-05T04:44:07.138Z,94799.14
2019-03-05T04:46:46.438Z,94809.62
2019-03-05T04:49:39.428Z,94825.70
2019-03-05T04:52:11.022Z,94824.10
2019-03-05T04:54:39.918Z,94821.66
2019-03-05T04:57:07.418Z,94822.90
2019-03-05T04:59:35.041Z,94810.66
2019-03-05T05:02:02.545Z,94821.92
2019-03-05T05:04:29.982Z,94823.42
2019-03-05T05:06:57.772Z,94812.13
2019-03-05T05:09:25.224Z,94819.72
2019-03-05T05:11:52.659Z,94812.76
2019-03-05T05:14:20.162Z,94823.06
2019-03-05T05:16:47.658Z,94819.96
2019-03-05T05:19:16.538Z,94821.14
2019-03-05T05:21:43.962Z,94822.39
2019-03-05T05:24:11.460Z,94829.57
2019-03-05T05:26:38.872Z,94824.94
2019-03-05T05:29:06.409Z,94830.40
2019-03-05T05:31:36.055Z,94831.53
2019-03-05T05:34:03.489Z,94829.36
2019-03-05T05:36:30.947Z,94824.39
2019-03-05T05:38:58.439Z,94817.41
2019-03-05T05:41:25.907Z,94817.00
2019-03-05T05:43:53.361Z,94812.50
2019-03-05T05:46:20.922Z,94811.50
2019-03-05T05:48:48.405Z,94816.41
2019-03-05T05:51:15.857Z,94812.85
2019-03-05T05:53:43.566Z,94801.67
2019-03-05T05:56:11.075Z,94799.34
2019-03-05T05:58:38.572Z,94799.18
2019-03-05T06:01:09.558Z,94795.59
2019-03-05T06:03:38.000Z,94779.91
2019-03-05T06:06:05.919Z,94790.91
2019-03-05T06:08:33.346Z,94793.55
2019-03-05T06:11:00.876Z,94784.76
2019-03-05T06:13:28.439Z,94783.95
2019-03-05T06:15:55.933Z,94781.46
2019-03-05T06:18:23.388Z,94785.92
2019-03-05T06:20:50.938Z,94780.70
2019-03-05T06:23:18.454Z,94778.29
2019-03-05T06:25:46.094Z,94783.03
2019-03-05T06:28:13.665Z,94787.64
2019-03-05T06:30:41.142Z,94801.52
2019-03-05T06:33:08.607Z,94810.34
2019-03-05T06:35:36.218Z,94829.62
2019-03-05T06:38:04.066Z,94829.94
2019-03-05T06:40:31.744Z,94831.09
2019-03-05T06:42:59.344Z,94830.86
2019-03-05T06:45:27.001Z,94839.10
2019-03-05T06:47:54.537Z,94850.34
2019-03-05T06:50:22.084Z,94854.97
2019-03-05T06:52:49.771Z,94865.66
2019-03-05T06:55:17.386Z,94862.25
2019-03-05T06:57:44.899Z,94865.65
2019-03-05T07:00:34.327Z,94861.51
2019-03-05T07:03:01.900Z,94856.72
2019-03-05T07:06:06.112Z,94865.19
2019-03-05T07:08:35.037Z,94881.34
2019-03-05T07:11:25.707Z,94868.85
2019-03-05T07:13:54.074Z,94872.90
2019-03-05T07:16:32.817Z,94884.78
2019-03-05T07:19:10.511Z,94893.63
2019-03-05T07:22:08.854Z,94890.30
2019-03-05T07:24:43.959Z,94882.93
2019-03-05T07:27:12.504Z,94889.72
2019-03-05T07:29:41.326Z,94899.20
2019-03-05T07:32:09.204Z,94908.17
2019-03-05T07:34:38.749Z,94906.61
2019-03-05T07:37:07.229Z,94911.82
2019-03-05T07:39:35.259Z,94921.36
2019-03-05T07:42:02.987Z,94922.14
2019-03-05T07:44:30.560Z,94914.91
2019-03-05T07:46:58.295Z,94929.31
2019-03-05T07:49:25.844Z,94931.52
2019-03-05T07:51:53.396Z,94926.22
2019-03-05T07:54:21.065Z,94929.10
2019-03-05T07:56:48.710Z,94921.47
2019-03-05T07:59:16.288Z,94930.11
2019-03-05T08:01:43.946Z,94924.43
2019-03-05T08:04:11.480Z,94925.44
2019-03-05T08:06:39.147Z,94925.77
2019-03-05T08:09:34.937Z,94923.30
2019-03-05T08:12:46.147Z,94918.13
2019-03-05T08:15:21.655Z,94921.23
2019-03-05T08:17:49.277Z,94922.01
2019-03-05T08:20:16.733Z,94916.02
2019-03-05T08:22:44.329Z,94911.98
2019-03-05T08:25:12.849Z,94906.16
2019-03-05T08:27:40.528Z,94910.88
2019-03-05T08:30:14.516Z,94916.09
2019-03-05T08:32:40.414Z,94915.59
2019-03-05T08:35:09.234Z,94914.45
2019-03-05T08:37:36.779Z,94919.14
2019-03-05T08:40:04.583Z,94910.98
2019-03-05T08:42:32.098Z,94917.84
2019-03-05T08:44:59.589Z,94906.98
2019-03-05T08:47:27.098Z,94899.09
2019-03-05T08:49:55.689Z,94899.94
2019-03-05T08:52:23.155Z,94895.03
2019-03-05T08:54:50.669Z,94900.95
2019-03-05T08:57:18.096Z,94905.39
2019-03-05T08:59:45.512Z,94908.36
2019-03-05T09:02:12.989Z,94896.27
2019-03-05T09:04:40.497Z,94895.48
2019-03-05T09:07:07.996Z,94900.45
2019-03-05T09:09:35.421Z,94887.58
2019-03-05T09:12:02.913Z,94890.09
2019-03-05T09:14:30.339Z,94886.48
2019-03-05T09:16:57.849Z,94889.19
2019-03-05T09:19:25.329Z,94894.57
2019-03-05T09:21:52.893Z,94886.34
2019-03-05T09:24:20.320Z,94872.13
2019-03-05T09:26:51.443Z,94871.77
2019-03-05T09:29:17.189Z,94867.87
2019-03-05T09:31:44.613Z,94869.20
2019-03-05T09:34:12.157Z,94867.65
2019-03-05T09:36:50.028Z,94864.07
2019-03-05T09:39:11.138Z,94859.52
2019-03-05T09:41:38.602Z,94855.30
2019-03-05T09:44:06.054Z,94853.38
2019-03-05T09:46:33.489Z,94854.95
2019-03-05T09:49:00.987Z,94853.27
2019-03-05T09:51:28.500Z,94852.79
2019-03-05T09:53:56.039Z,94852.56
2019-03-05T09:56:23.474Z,94849.77
2019-03-05T09:58:50.938Z,94840.44
2019-03-05T10:01:19.047Z,94840.78
2019-03-05T10:03:46.498Z,94833.10
2019-03-05T10:06:13.949Z,94836.48
2019-03-05T10:08:41.410Z,94839.22
2019-03-05T10:11:09.070Z,94839.74
2019-03-05T10:13:36.513Z,94844.02
2019-03-05T10:16:04.510Z,94836.75
2019-03-05T10:18:32.001Z,94838.94
2019-03-05T10:20:59.737Z,94834.47
2019-03-05T10:23:27.178Z,94833.72
2019-03-05T10:25:54.570Z,94828.74
2019-03-05T10:28:21.907Z,94830.20
2019-03-05T10:30:49.352Z,94825.37
2019-03-05T10:33:17.943Z,94821.20
2019-03-05T10:35:45.382Z,94831.30
2019-03-05T10:38:13.572Z,94833.12
2019-03-05T10:40:41.630Z,94830.16
2019-03-05T10:43:10.087Z,94826.06
2019-03-05T10:45:39.231Z,94824.20
2019-03-05T10:48:06.702Z,94816.55
2019-03-05T10:50:34.275Z,94812.55
2019-03-05T10:53:01.822Z,94817.53
2019-03-05T10:55:29.339Z,94805.91
2019-03-05T10:57:56.759Z,94811.05
2019-03-05T11:00:29.741Z,94809.48
2019-03-05T11:02:57.364Z,94803.83
2019-03-05T11:05:25.831Z,94800.91
2019-03-05T11:07:53.213Z,94804.44
2019-03-05T11:10:20.766Z,94798.77
2019-03-05T11:12:48.272Z,94794.75
2019-03-05T11:15:19.164Z,94796.64
2019-03-05T11:17:46.546Z,94788.30
2019-03-05T11:20:13.907Z,94786.18
2019-03-05T11:22:41.397Z,94783.95
2019-03-05T11:25:10.008Z,94778.42
2019-03-05T11:27:37.441Z,94771.46
2019-03-05T11:30:06.307Z,94772.86
2019-03-05T11:32:33.938Z,94762.47
2019-03-05T11:35:01.317Z,94759.06
2019-03-05T11:37:28.739Z,94749.37
2019-03-05T11:39:56.220Z,94740.13
2019-03-05T11:42:23.616Z,94737.42
2019-03-05T11:44:58.995Z,94733.91
2019-03-05T11:47:20.342Z,94729.68
2019-03-05T11:49:47.761Z,94727.63
2019-03-05T11:52:15.255Z,94726.94
2019-03-05T11:54:42.679Z,94721.38
2019-03-05T11:57:10.047Z,94724.92
2019-03-05T11:59:37.489Z,94703.36
2019-03-05T12:02:05.086Z,94702.36
2019-03-05T12:04:32.470Z,94691.56
2019-03-05T12:07:01.804Z,94692.02
2019-03-05T12:09:29.195Z,94694.63
2019-03-05T12:11:56.602Z,94683.75
2019-03-05T12:14:23.951Z,94686.09
2019-03-05T12:16:51.317Z,94681.13
2019-03-05T12:19:18.711Z,94689.88
2019-03-05T12:21:46.123Z,94677.56
2019-03-05T12:24:13.470Z,94679.59
2019-03-05T12:26:40.834Z,94678.38
2019-03-05T12:29:08.268Z,94672.80
2019-03-05T12:31:35.674Z,94666.91
2019-03-05T12:34:03.237Z,94664.20
2019-03-05T12:36:30.635Z,94663.69
2019-03-05T12:38:58.081Z,94658.02
2019-03-05T12:41:25.480Z,94659.84
2019-03-05T12:43:52.912Z,94656.00
2019-03-05T12:46:20.332Z,94652.77
2019-03-05T12:48:47.753Z,94647.25
2019-03-05T12:51:15.231Z,94650.82
2019-03-05T12:53:42.708Z,94639.52
2019-03-05T12:56:10.175Z,94639.10
2019-03-05T12:58:37.578Z,94638.13
2019-03-05T13:01:06.698Z,94630.60
2019-03-05T13:03:34.139Z,94624.01
2019-03-05T13:06:01.522Z,94614.32
2019-03-05T13:08:28.921Z,94610.46
2019-03-05T13:10:56.488Z,94610.30
2019-03-05T13:13:24.032Z,94618.72
2019-03-05T13:15:52.867Z,94620.78
2019-03-05T13:18:20.452Z,94614.37
2019-03-05T13:20:47.828Z,94612.19
2019-03-05T13:23:15.201Z,94610.86
2019-03-05T13:25:42.562Z,94612.52
2019-03-05T13:28:09.993Z,94624.30
2019-03-05T13:30:40.167Z,94614.27
2019-03-05T13:33:06.878Z,94623.19
2019-03-05T13:35:34.233Z,94630.60
2019-03-05T13:38:03.392Z,94620.89
2019-03-05T13:40:34.032Z,94619.53
2019-03-05T13:43:00.285Z,94614.46
2019-03-05T13:45:27.805Z,94611.19
2019-03-05T13:48:08.227Z,94605.47
2019-03-05T13:50:54.190Z,94597.97
2019-03-05T13:54:12.681Z,94603.28
2019-03-05T13:57:23.741Z,94595.42
2019-03-05T13:59:51.281Z,94601.16
2019-03-05T14:02:27.968Z,94605.66
2019-03-05T14:05:43.029Z,94602.75
2019-03-05T14:08:46.118Z,94603.40
2019-03-05T14:11:13.915Z,94607.80
2019-03-05T14:13:41.314Z,94598.63
2019-03-05T14:16:10.431Z,94605.75
2019-03-05T14:18:38.152Z,94609.36
2019-03-05T14:21:05.854Z,94619.69
2019-03-05T14:23:33.292Z,94626.84
2019-03-05T14:26:00.703Z,94626.14
2019-03-05T14:28:28.190Z,94638.06
2019-03-05T14:30:55.615Z,94644.72
2019-03-05T14:33:23.107Z,94640.27
2019-03-05T14:35:50.543Z,94636.48
2019-03-05T14:38:18.523Z,94644.19
2019-03-05T14:40:46.176Z,94647.14
2019-03-05T14:43:13.603Z,94649.91
2019-03-05T14:45:41.193Z,94660.64
2019-03-05T14:48:08.935Z,94660.53
2019-03-05T14:50:36.582Z,94663.33
2019-03-05T14:53:04.605Z,94661.88
2019-03-05T14:55:32.134Z,94658.95
2019-03-05T14:57:59.725Z,94662.17
2019-03-05T15:00:27.271Z,94666.85
2019-03-05T15:02:54.936Z,94656.10
2019-03-05T15:05:22.537Z,94646.73
2019-03-05T15:07:50.089Z,94644.91
2019-03-05T15:10:17.804Z,94655.45
2019-03-05T15:12:45.509Z,94663.50
2019-03-05T15:15:27.087Z,94672.63
2019-03-05T15:17:54.952Z,94674.91
2019-03-05T15:20:22.406Z,94678.07
2019-03-05T15:22:49.886Z,94681.09
2019-03-05T15:25:17.739Z,94685.89
2019-03-05T15:27:45.342Z,94684.17
2019-03-05T15:30:14.990Z,94683.00
2019-03-05T15:32:42.786Z,94700.42
2019-03-05T15:35:10.691Z,94696.77
2019-03-05T15:37:39.715Z,94685.36
2019-03-05T15:40:09.176Z,94687.61
2019-03-05T15:42:36.928Z,94697.05
2019-03-05T15:45:05.700Z,94694.52
2019-03-05T15:47:33.542Z,94684.50
2019-03-05T15:50:01.364Z,94675.48
2019-03-05T15:52:29.227Z,94686.45
2019-03-05T15:54:56.942Z,94701.63
2019-03-05T15:57:26.376Z,94700.02
2019-03-05T15:59:54.446Z,94703.55
2019-03-05T16:02:22.249Z,94707.60
2019-03-05T16:04:50.072Z,94699.05
2019-03-05T16:07:17.988Z,94701.48
2019-03-05T16:09:45.797Z,94702.45
2019-03-05T16:12:14.156Z,94719.64
2019-03-05T16:14:42.200Z,94719.93
2019-03-05T16:17:09.996Z,94728.28
2019-03-05T16:19:37.984Z,94722.09
2019-03-05T16:22:05.762Z,94736.70
2019-03-05T16:24:33.958Z,94736.08
2019-03-05T16:27:03.189Z,94746.33
2019-03-05T16:29:30.955Z,94746.27
2019-03-05T16:32:15.023Z,94754.84
2019-03-05T16:34:58.392Z,94753.67
2019-03-05T16:37:48.237Z,94750.67
2019-03-05T16:40:41.015Z,94745.41
2019-03-05T16:43:16.949Z,94747.74
2019-03-05T16:46:13.294Z,94754.39
2019-03-05T16:49:09.550Z,94746.45
2019-03-05T16:52:05.843Z,94743.00
2019-03-05T16:54:47.096Z,94746.05
2019-03-05T16:57:33.254Z,94748.59
2019-03-05T17:00:17.377Z,94750.95
2019-03-05T17:03:07.628Z,94755.70
2019-03-05T17:06:07.214Z,94773.84
2019-03-05T17:08:54.654Z,94775.49
2019-03-05T17:11:50.984Z,94777.73
2019-03-05T17:14:18.949Z,94786.67
2019-03-05T17:16:46.715Z,94784.49
2019-03-05T17:19:16.074Z,94780.84
2019-03-05T17:21:44.223Z,94790.23
2019-03-05T17:24:12.256Z,94802.25
2019-03-05T17:26:40.294Z,94803.68
2019-03-05T17:29:08.258Z,94814.69
2019-03-05T17:31:36.122Z,94815.17
2019-03-05T17:34:04.062Z,94817.42
2019-03-05T17:36:32.047Z,94843.52
2019-03-05T17:39:00.099Z,94835.14
2019-03-05T17:41:28.092Z,94838.52
2019-03-05T17:43:56.659Z,94853.69
2019-03-05T17:46:24.655Z,94848.98
2019-03-05T17:48:52.707Z,94860.21
2019-03-05T17:51:20.550Z,94862.55
2019-03-05T17:53:48.601Z,94851.34
2019-03-05T17:56:18.755Z,94853.50
2019-03-05T17:58:46.762Z,94866.60
2019-03-05T18:01:16.236Z,94895.57
2019-03-05T18:03:44.657Z,94888.00
2019-03-05T18:06:12.740Z,94901.30
2019-03-05T18:08:41.420Z,94914.35
2019-03-05T18:11:09.450Z,94907.55
2019-03-05T18:13:37.407Z,94926.44
2019-03-05T18:16:05.369Z,94921.42
2019-03-05T18:18:33.405Z,94932.57
2019-03-05T18:21:03.383Z,94942.24
2019-03-05T18:23:31.215Z,94951.58
2019-03-05T18:26:00.547Z,94934.58
2019-03-05T18:28:28.904Z,94914.85
2019-03-05T18:30:56.927Z,94917.86
2019-03-05T18:33:24.898Z,94913.61
2019-03-05T18:35:52.884Z,94917.52
2019-03-05T18:38:20.852Z,94920.48
2019-03-05T18:40:48.962Z,94919.91
2019-03-05T18:43:16.984Z,94923.68
2019-03-05T18:45:45.582Z,94920.52
2019-03-05T18:48:14.817Z,94931.47
2019-03-05T18:50:42.766Z,94929.64
2019-03-05T18:53:10.877Z,94937.18
2019-03-05T18:55:38.936Z,94943.13
2019-03-05T18:58:06.912Z,94939.87
2019-03-05T19:00:34.997Z,94949.66
2019-03-05T19:03:03.884Z,94953.32
2019-03-05T19:05:31.948Z,94951.01
2019-03-05T19:08:00.152Z,94954.84
2019-03-05T19:10:28.625Z,94964.89
2019-03-05T19:12:58.692Z,94976.19
2019-03-05T19:15:26.645Z,94982.06
2019-03-05T19:17:54.628Z,94970.45
2019-03-05T19:20:23.402Z,94968.42
2019-03-05T19:22:51.879Z,94976.97
2019-03-05T19:25:24.781Z,94982.17
2019-03-05T19:27:55.605Z,94989.64
2019-03-05T19:30:26.737Z,94982.88
2019-03-05T19:32:56.891Z,94982.25
2019-03-05T19:35:24.915Z,94970.98
2019-03-05T19:37:53.014Z,94975.08
2019-03-05T19:40:26.629Z,94979.03
2019-03-05T19:42:54.751Z,94995.49
2019-03-05T19:45:23.094Z,95001.09
2019-03-05T19:47:51.359Z,95002.16
2019-03-05T19:50:19.423Z,95002.86
2019-03-05T19:52:48.066Z,95022.11
2019-03-05T19:55:19.922Z,95009.85
2019-03-05T19:57:47.918Z,95020.55
2019-03-05T20:00:20.482Z,95030.23
2019-03-05T20:02:48.577Z,95034.12
2019-03-05T20:05:20.927Z,95035.47
2019-03-05T20:07:49.108Z,95039.52
2019-03-05T20:10:18.970Z,95038.39
2019-03-05T20:12:47.031Z,95043.73
2019-03-05T20:15:17.226Z,95048.06
2019-03-05T20:17:48.411Z,95050.24
2019-03-05T20:20:17.084Z,95053.43
2019-03-05T20:22:46.026Z,95053.61
2019-03-05T20:25:16.247Z,95060.84
2019-03-05T20:27:50.948Z,95057.39
2019-03-05T20:30:25.659Z,95056.45
2019-03-05T20:32:59.917Z,95064.47
2019-03-05T20:35:29.978Z,95065.33
2019-03-05T20:38:02.646Z,95061.38
2019-03-05T20:40:31.202Z,95050.21
2019-03-05T20:42:59.432Z,95063.72
2019-03-05T20:45:28.723Z,95071.52
2019-03-05T20:47:59.854Z,95063.87
2019-03-05T20:50:29.645Z,95064.52
2019-03-05T20:52:59.058Z,95063.59
2019-03-05T20:55:28.844Z,95055.44
2019-03-05T20:58:04.931Z,95062.67
2019-03-05T21:00:34.648Z,95057.51
2019-03-05T21:03:06.137Z,95046.04
2019-03-05T21:05:37.619Z,95043.80
2019-03-05T21:08:09.005Z,95055.86
2019-03-05T21:10:46.060Z,95067.13
2019-03-05T21:13:16.826Z,95069.75
2019-03-05T21:15:44.895Z,95084.15
2019-03-05T21:18:13.031Z,95077.64
2019-03-05T21:20:41.452Z,95077.43
2019-03-05T21:23:10.850Z,95075.55
2019-03-05T21:25:39.054Z,95069.81
2019-03-05T21:28:11.266Z,95076.91
2019-03-05T21:30:39.291Z,95086.75
2019-03-05T21:33:07.419Z,95087.58
2019-03-05T21:35:35.435Z,95092.48
2019-03-05T21:38:03.496Z,95095.06
2019-03-05T21:40:31.621Z,95093.65
2019-03-05T21:42:59.750Z,95085.84
2019-03-05T21:45:35.136Z,95090.01
2019-03-05T21:48:04.345Z,95093.03
2019-03-05T21:50:32.304Z,95092.48
2019-03-05T21:53:00.297Z,95095.52
2019-03-05T21:55:28.288Z,95105.46
2019-03-05T21:57:56.176Z,95117.66
2019-03-05T22:00:25.960Z,95119.42
2019-03-05T22:02:53.624Z,95115.87
2019-03-05T22:05:21.090Z,95123.77
2019-03-05T22:07:48.786Z,95119.30
2019-03-05T22:10:17.753Z,95117.05
2019-03-05T22:12:45.315Z,95117.91
2019-03-05T22:15:14.645Z,95120.03
2019-03-05T22:17:42.072Z,95126.53
2019-03-05T22:20:11.152Z,95128.20
2019-03-05T22:22:38.606Z,95134.88
2019-03-05T22:25:06.438Z,95129.98
2019-03-05T22:27:33.890Z,95138.09
2019-03-05T22:30:01.396Z,95133.63
2019-03-05T22:32:28.830Z,95138.93
2019-03-05T22:34:56.263Z,95142.73
2019-03-05T22:37:23.732Z,95133.73
2019-03-05T22:39:51.794Z,95140.17
2019-03-05T22:42:19.229Z,95148.03
2019-03-05T22:44:46.665Z,95148.97
2019-03-05T22:47:14.109Z,95143.57
2019-03-05T22:49:41.554Z,95143.50
2019-03-05T22:52:08.926Z,95143.50
2019-03-05T22:54:36.488Z,95141.66
2019-03-05T22:57:04.018Z,95132.01
2019-03-05T22:59:31.385Z,95134.77
2019-03-05T23:01:58.887Z,95139.23
2019-03-05T23:04:35.928Z,95144.64
2019-03-05T23:07:04.093Z,95143.97
2019-03-05T23:09:31.640Z,95141.84
2019-03-05T23:11:59.171Z,95143.41
2019-03-05T23:14:26.614Z,95155.47
2019-03-05T23:16:54.087Z,95156.04
2019-03-05T23:19:21.592Z,95150.64
2019-03-05T23:21:49.074Z,95149.54
2019-03-05T23:24:16.898Z,95154.83
2019-03-05T23:26:44.288Z,95157.33
2019-03-05T23:29:12.811Z,95167.47
2019-03-05T23:31:40.758Z,95169.03
2019-03-05T23:34:08.147Z,95169.22
2019-03-05T23:36:35.691Z,95166.14
2019-03-05T23:39:04.652Z,95176.55
2019-03-05T23:41:32.052Z,95171.82
2019-03-05T23:43:59.703Z,95176.94
2019-03-05T23:46:27.211Z,95172.30
2019-03-05T23:48:54.613Z,95174.61
2019-03-05T23:51:22.018Z,95174.15
2019-03-05T23:53:49.432Z,95175.53
2019-03-05T23:56:16.895Z,95172.46
2019-03-05T23:58:44.339Z,95179.33
